sensor_id;sensor_type;location;lat;lon;timestamp;P1;durP1;ratioP1;P2;durP2;ratioP2
21448;SDS011;10885;52.830;13.788;2023-10-31T03:41:52;2.97;;;2.45;;
21448;SDS011;10885;52.830;13.788;2023-10-31T03:46:54;3.67;;;2.38;;
21448;SDS011;10885;52.830;13.788;2023-10-31T03:51:57;2.63;;;2.03;;
21448;SDS011;10885;52.830;13.788;2023-10-31T03:57:00;4.68;;;2.10;;
21448;SDS011;10885;52.830;13.788;2023-10-31T04:02:03;2.65;;;2.05;;
21448;SDS011;10885;52.830;13.788;2023-10-31T04:07:05;2.38;;;1.85;;
21448;SDS011;10885;52.830;13.788;2023-10-31T04:12:09;3.65;;;2.28;;
21448;SDS011;10885;52.830;13.788;2023-10-31T04:17:12;3.15;;;2.40;;
21448;SDS011;10885;52.830;13.788;2023-10-31T04:22:14;3.92;;;2.50;;
21448;SDS011;10885;52.830;13.788;2023-10-31T04:27:17;4.10;;;2.50;;
21448;SDS011;10885;52.830;13.788;2023-10-31T04:32:20;3.83;;;2.28;;
21448;SDS011;10885;52.830;13.788;2023-10-31T04:37:23;4.53;;;2.50;;
21448;SDS011;10885;52.830;13.788;2023-10-31T04:42:26;3.90;;;2.40;;
21448;SDS011;10885;52.830;13.788;2023-10-31T04:47:29;3.50;;;2.13;;
21448;SDS011;10885;52.830;13.788;2023-10-31T04:52:32;3.35;;;2.45;;
21448;SDS011;10885;52.830;13.788;2023-10-31T04:57:35;3.97;;;2.75;;
21448;SDS011;10885;52.830;13.788;2023-10-31T05:02:38;3.33;;;2.20;;
21448;SDS011;10885;52.830;13.788;2023-10-31T05:07:41;2.78;;;2.05;;
21448;SDS011;10885;52.830;13.788;2023-10-31T05:12:44;3.42;;;1.70;;
21448;SDS011;10885;52.830;13.788;2023-10-31T05:17:47;2.90;;;1.67;;
21448;SDS011;10885;52.830;13.788;2023-10-31T05:22:50;4.47;;;2.10;;
21448;SDS011;10885;52.830;13.788;2023-10-31T05:27:53;2.78;;;2.10;;
21448;SDS011;10885;52.830;13.788;2023-10-31T05:32:56;3.20;;;1.92;;
21448;SDS011;10885;52.830;13.788;2023-10-31T05:37:59;3.30;;;1.98;;
21448;SDS011;10885;52.830;13.788;2023-10-31T05:43:02;2.35;;;1.92;;
21448;SDS011;10885;52.830;13.788;2023-10-31T05:48:05;2.70;;;1.92;;
21448;SDS011;10885;52.830;13.788;2023-10-31T05:53:08;2.42;;;2.20;;
21448;SDS011;10885;52.830;13.788;2023-10-31T05:58:11;3.40;;;2.42;;
21448;SDS011;10885;52.830;13.788;2023-10-31T06:03:14;2.40;;;1.80;;
21448;SDS011;10885;52.830;13.788;2023-10-31T06:08:17;2.15;;;1.88;;
21448;SDS011;10885;52.830;13.788;2023-10-31T06:13:20;2.67;;;1.90;;
21448;SDS011;10885;52.830;13.788;2023-10-31T06:18:23;2.80;;;2.00;;
21448;SDS011;10885;52.830;13.788;2023-10-31T06:23:26;1.73;;;1.48;;
21448;SDS011;10885;52.830;13.788;2023-10-31T06:28:31;2.95;;;1.70;;
21448;SDS011;10885;52.830;13.788;2023-10-31T06:33:42;2.03;;;1.60;;
21448;SDS011;10885;52.830;13.788;2023-10-31T06:38:45;1.50;;;1.27;;
21448;SDS011;10885;52.830;13.788;2023-10-31T06:43:48;2.65;;;1.48;;
21448;SDS011;10885;52.830;13.788;2023-10-31T06:48:51;2.13;;;1.75;;
21448;SDS011;10885;52.830;13.788;2023-10-31T06:53:53;1.70;;;1.35;;
21448;SDS011;10885;52.830;13.788;2023-10-31T06:58:56;1.65;;;1.30;;
21448;SDS011;10885;52.830;13.788;2023-10-31T07:03:59;1.92;;;1.45;;
21448;SDS011;10885;52.830;13.788;2023-10-31T07:09:02;1.98;;;1.60;;
21448;SDS011;10885;52.830;13.788;2023-10-31T07:14:07;1.25;;;1.15;;
21448;SDS011;10885;52.830;13.788;2023-10-31T07:19:10;1.45;;;1.10;;
21448;SDS011;10885;52.830;13.788;2023-10-31T07:24:13;1.17;;;1.10;;
21448;SDS011;10885;52.830;13.788;2023-10-31T07:29:16;1.63;;;1.30;;
21448;SDS011;10885;52.830;13.788;2023-10-31T07:34:19;1.17;;;1.08;;
21448;SDS011;10885;52.830;13.788;2023-10-31T07:39:22;1.52;;;1.20;;
21448;SDS011;10885;52.830;13.788;2023-10-31T07:44:25;1.08;;;0.98;;
21448;SDS011;10885;52.830;13.788;2023-10-31T07:49:28;1.00;;;0.90;;
21448;SDS011;10885;52.830;13.788;2023-10-31T07:54:30;1.10;;;0.90;;
21448;SDS011;10885;52.830;13.788;2023-10-31T07:59:34;0.80;;;0.80;;
21448;SDS011;10885;52.830;13.788;2023-10-31T08:04:37;0.95;;;0.90;;
21448;SDS011;10885;52.830;13.788;2023-10-31T08:09:39;1.70;;;1.20;;
21448;SDS011;10885;52.830;13.788;2023-10-31T08:14:42;7.18;;;3.50;;
21448;SDS011;10885;52.830;13.788;2023-10-31T08:19:45;2.03;;;1.65;;
21448;SDS011;10885;52.830;13.788;2023-10-31T08:24:50;2.42;;;1.83;;
21448;SDS011;10885;52.830;13.788;2023-10-31T08:29:52;1.20;;;1.10;;
21448;SDS011;10885;52.830;13.788;2023-10-31T08:34:55;1.15;;;0.80;;
21448;SDS011;10885;52.830;13.788;2023-10-31T08:40:00;0.75;;;0.75;;
21448;SDS011;10885;52.830;13.788;2023-10-31T08:45:06;2.70;;;1.08;;
21448;SDS011;10885;52.830;13.788;2023-10-31T08:50:09;1.02;;;0.80;;
21448;SDS011;10885;52.830;13.788;2023-10-31T08:55:13;1.60;;;1.00;;
21448;SDS011;10885;52.830;13.788;2023-10-31T09:00:16;1.13;;;1.02;;
21448;SDS011;10885;52.830;13.788;2023-10-31T09:05:19;0.80;;;0.80;;
21448;SDS011;10885;52.830;13.788;2023-10-31T09:10:22;0.50;;;0.50;;
21448;SDS011;10885;52.830;13.788;2023-10-31T09:15:25;0.85;;;0.50;;
21448;SDS011;10885;52.830;13.788;2023-10-31T09:20:28;0.70;;;0.60;;
21448;SDS011;10885;52.830;13.788;2023-10-31T09:25:32;0.55;;;0.30;;
21448;SDS011;10885;52.830;13.788;2023-10-31T09:30:35;0.80;;;0.45;;
21448;SDS011;10885;52.830;13.788;2023-10-31T09:35:37;0.40;;;0.30;;
21448;SDS011;10885;52.830;13.788;2023-10-31T09:40:40;0.57;;;0.40;;
21448;SDS011;10885;52.830;13.788;2023-10-31T09:45:43;0.40;;;0.40;;
21448;SDS011;10885;52.830;13.788;2023-10-31T09:50:47;0.30;;;0.30;;
21448;SDS011;10885;52.830;13.788;2023-10-31T09:55:51;0.30;;;0.30;;
21448;SDS011;10885;52.830;13.788;2023-10-31T10:00:56;0.30;;;0.30;;
21448;SDS011;10885;52.830;13.788;2023-10-31T10:05:59;0.30;;;0.30;;
21448;SDS011;10885;52.830;13.788;2023-10-31T10:11:05;0.55;;;0.30;;
21448;SDS011;10885;52.830;13.788;2023-10-31T10:16:09;0.17;;;0.17;;
21448;SDS011;10885;52.830;13.788;2023-10-31T10:21:12;0.20;;;0.20;;
21448;SDS011;10885;52.830;13.788;2023-10-31T10:26:14;0.30;;;0.30;;
21448;SDS011;10885;52.830;13.788;2023-10-31T10:31:17;0.45;;;0.30;;
21448;SDS011;10885;52.830;13.788;2023-10-31T10:36:20;0.40;;;0.30;;
21448;SDS011;10885;52.830;13.788;2023-10-31T10:41:28;0.75;;;0.40;;
21448;SDS011;10885;52.830;13.788;2023-10-31T10:46:32;0.25;;;0.20;;
21448;SDS011;10885;52.830;13.788;2023-10-31T10:51:54;0.30;;;0.20;;
21448;SDS011;10885;52.830;13.788;2023-10-31T11:02:36;0.30;;;0.30;;
21448;SDS011;10885;52.830;13.788;2023-10-31T11:07:39;0.52;;;0.40;;
21448;SDS011;10885;52.830;13.788;2023-10-31T11:12:42;0.70;;;0.30;;
21448;SDS011;10885;52.830;13.788;2023-10-31T11:17:46;0.30;;;0.30;;
21448;SDS011;10885;52.830;13.788;2023-10-31T11:22:54;2.72;;;0.55;;
21448;SDS011;10885;52.830;13.788;2023-10-31T11:28:13;1.07;;;0.43;;
21448;SDS011;10885;52.830;13.788;2023-10-31T11:33:20;0.47;;;0.30;;
21448;SDS011;10885;52.830;13.788;2023-10-31T11:38:31;0.30;;;0.30;;
21448;SDS011;10885;52.830;13.788;2023-10-31T11:48:47;0.20;;;0.20;;
21448;SDS011;10885;52.830;13.788;2023-10-31T11:53:54;0.30;;;0.30;;
21448;SDS011;10885;52.830;13.788;2023-10-31T12:04:07;0.50;;;0.30;;
21448;SDS011;10885;52.830;13.788;2023-10-31T12:09:10;0.70;;;0.40;;
21448;SDS011;10885;52.830;13.788;2023-10-31T12:14:17;0.70;;;0.40;;
21448;SDS011;10885;52.830;13.788;2023-10-31T12:19:21;0.43;;;0.43;;
21448;SDS011;10885;52.830;13.788;2023-10-31T12:24:24;0.68;;;0.60;;
21448;SDS011;10885;52.830;13.788;2023-10-31T12:29:26;0.77;;;0.70;;
21448;SDS011;10885;52.830;13.788;2023-10-31T12:34:29;0.90;;;0.68;;
21448;SDS011;10885;52.830;13.788;2023-10-31T12:39:32;0.75;;;0.75;;
21448;SDS011;10885;52.830;13.788;2023-10-31T12:44:35;0.60;;;0.60;;
21448;SDS011;10885;52.830;13.788;2023-10-31T12:49:38;0.70;;;0.50;;
21448;SDS011;10885;52.830;13.788;2023-10-31T12:54:41;0.50;;;0.50;;
21448;SDS011;10885;52.830;13.788;2023-10-31T12:59:44;0.85;;;0.43;;
21448;SDS011;10885;52.830;13.788;2023-10-31T13:04:46;0.40;;;0.40;;
21448;SDS011;10885;52.830;13.788;2023-10-31T13:09:49;0.77;;;0.60;;
21448;SDS011;10885;52.830;13.788;2023-10-31T13:14:53;0.30;;;0.30;;
21448;SDS011;10885;52.830;13.788;2023-10-31T13:19:55;0.32;;;0.32;;
21448;SDS011;10885;52.830;13.788;2023-10-31T13:24:58;0.20;;;0.20;;
21448;SDS011;10885;52.830;13.788;2023-10-31T13:30:01;0.35;;;0.35;;
21448;SDS011;10885;52.830;13.788;2023-10-31T13:35:05;2.28;;;0.35;;
21448;SDS011;10885;52.830;13.788;2023-10-31T13:40:08;0.73;;;0.35;;
21448;SDS011;10885;52.830;13.788;2023-10-31T13:45:11;0.38;;;0.20;;
21448;SDS011;10885;52.830;13.788;2023-10-31T13:50:14;1.08;;;0.30;;
21448;SDS011;10885;52.830;13.788;2023-10-31T13:55:17;0.20;;;0.20;;
21448;SDS011;10885;52.830;13.788;2023-10-31T14:00:20;0.75;;;0.20;;
21448;SDS011;10885;52.830;13.788;2023-10-31T14:05:23;0.30;;;0.22;;
21448;SDS011;10885;52.830;13.788;2023-10-31T14:10:26;0.47;;;0.20;;
21448;SDS011;10885;52.830;13.788;2023-10-31T14:15:28;1.90;;;1.50;;
21448;SDS011;10885;52.830;13.788;2023-10-31T14:20:31;1.83;;;0.50;;
21448;SDS011;10885;52.830;13.788;2023-10-31T14:25:34;0.40;;;0.35;;
21448;SDS011;10885;52.830;13.788;2023-10-31T14:30:38;0.30;;;0.30;;
21448;SDS011;10885;52.830;13.788;2023-10-31T14:35:41;0.20;;;0.20;;
21448;SDS011;10885;52.830;13.788;2023-10-31T14:40:43;0.20;;;0.20;;
21448;SDS011;10885;52.830;13.788;2023-10-31T14:45:46;0.55;;;0.25;;
21448;SDS011;10885;52.830;13.788;2023-10-31T14:50:49;0.20;;;0.20;;
21448;SDS011;10885;52.830;13.788;2023-10-31T14:55:52;0.30;;;0.30;;
21448;SDS011;10885;52.830;13.788;2023-10-31T15:00:54;0.93;;;0.43;;
21448;SDS011;10885;52.830;13.788;2023-10-31T15:05:58;0.20;;;0.20;;
21448;SDS011;10885;52.830;13.788;2023-10-31T15:11:01;0.30;;;0.30;;
21448;SDS011;10885;52.830;13.788;2023-10-31T15:16:04;0.30;;;0.30;;
21448;SDS011;10885;52.830;13.788;2023-10-31T15:21:07;0.20;;;0.20;;
21448;SDS011;10885;52.830;13.788;2023-10-31T15:26:09;0.98;;;0.20;;
21448;SDS011;10885;52.830;13.788;2023-10-31T15:31:16;0.20;;;0.20;;
21448;SDS011;10885;52.830;13.788;2023-10-31T15:36:18;0.20;;;0.20;;
21448;SDS011;10885;52.830;13.788;2023-10-31T15:41:21;0.80;;;0.20;;
21448;SDS011;10885;52.830;13.788;2023-10-31T15:46:25;0.20;;;0.20;;
21448;SDS011;10885;52.830;13.788;2023-10-31T15:51:28;0.73;;;0.28;;
21448;SDS011;10885;52.830;13.788;2023-10-31T15:56:31;0.25;;;0.25;;
21448;SDS011;10885;52.830;13.788;2023-10-31T16:01:34;0.30;;;0.30;;
21448;SDS011;10885;52.830;13.788;2023-10-31T16:06:37;1.38;;;0.30;;
21448;SDS011;10885;52.830;13.788;2023-10-31T16:11:40;0.75;;;0.30;;
21448;SDS011;10885;52.830;13.788;2023-10-31T16:16:43;0.28;;;0.28;;
21448;SDS011;10885;52.830;13.788;2023-10-31T16:21:46;0.30;;;0.30;;
21448;SDS011;10885;52.830;13.788;2023-10-31T16:26:50;2.47;;;0.30;;
21448;SDS011;10885;52.830;13.788;2023-10-31T16:31:52;0.65;;;0.30;;
21448;SDS011;10885;52.830;13.788;2023-10-31T16:36:56;0.15;;;0.15;;
21448;SDS011;10885;52.830;13.788;2023-10-31T16:42:01;0.55;;;0.55;;
21448;SDS011;10885;52.830;13.788;2023-10-31T16:47:04;3.75;;;0.30;;
21448;SDS011;10885;52.830;13.788;2023-10-31T16:52:07;0.57;;;0.30;;
21448;SDS011;10885;52.830;13.788;2023-10-31T16:57:11;0.10;;;0.10;;
21448;SDS011;10885;52.830;13.788;2023-10-31T17:02:13;0.20;;;0.20;;
21448;SDS011;10885;52.830;13.788;2023-10-31T17:07:16;0.30;;;0.30;;
21448;SDS011;10885;52.830;13.788;2023-10-31T17:12:19;0.10;;;0.10;;
21448;SDS011;10885;52.830;13.788;2023-10-31T17:17:22;0.20;;;0.20;;
21448;SDS011;10885;52.830;13.788;2023-10-31T17:22:27;0.30;;;0.30;;
21448;SDS011;10885;52.830;13.788;2023-10-31T17:27:32;0.20;;;0.20;;
21448;SDS011;10885;52.830;13.788;2023-10-31T17:32:35;0.40;;;0.20;;
21448;SDS011;10885;52.830;13.788;2023-10-31T17:37:39;0.20;;;0.20;;
21448;SDS011;10885;52.830;13.788;2023-10-31T17:42:41;0.65;;;0.50;;
21448;SDS011;10885;52.830;13.788;2023-10-31T17:47:44;0.28;;;0.28;;
21448;SDS011;10885;52.830;13.788;2023-10-31T17:52:47;0.20;;;0.20;;
21448;SDS011;10885;52.830;13.788;2023-10-31T17:57:50;0.30;;;0.30;;
21448;SDS011;10885;52.830;13.788;2023-10-31T18:02:53;0.30;;;0.30;;
21448;SDS011;10885;52.830;13.788;2023-10-31T18:08:00;0.30;;;0.30;;
21448;SDS011;10885;52.830;13.788;2023-10-31T18:13:03;0.50;;;0.45;;
21448;SDS011;10885;52.830;13.788;2023-10-31T18:18:07;0.30;;;0.30;;
21448;SDS011;10885;52.830;13.788;2023-10-31T18:23:10;0.40;;;0.35;;
21448;SDS011;10885;52.830;13.788;2023-10-31T18:28:14;0.15;;;0.15;;
21448;SDS011;10885;52.830;13.788;2023-10-31T18:33:17;0.60;;;0.60;;
21448;SDS011;10885;52.830;13.788;2023-10-31T18:38:20;0.20;;;0.20;;
21448;SDS011;10885;52.830;13.788;2023-10-31T18:43:26;0.22;;;0.22;;
21448;SDS011;10885;52.830;13.788;2023-10-31T18:48:29;0.38;;;0.38;;
21448;SDS011;10885;52.830;13.788;2023-10-31T18:53:32;0.30;;;0.30;;
21448;SDS011;10885;52.830;13.788;2023-10-31T18:58:35;0.30;;;0.30;;
21448;SDS011;10885;52.830;13.788;2023-10-31T19:03:38;0.40;;;0.40;;
21448;SDS011;10885;52.830;13.788;2023-10-31T19:08:41;0.30;;;0.30;;
21448;SDS011;10885;52.830;13.788;2023-10-31T19:13:44;0.30;;;0.30;;
21448;SDS011;10885;52.830;13.788;2023-10-31T19:18:47;0.82;;;0.32;;
21448;SDS011;10885;52.830;13.788;2023-10-31T19:23:49;0.57;;;0.57;;
21448;SDS011;10885;52.830;13.788;2023-10-31T19:28:52;0.93;;;0.45;;
21448;SDS011;10885;52.830;13.788;2023-10-31T19:33:56;0.73;;;0.50;;
21448;SDS011;10885;52.830;13.788;2023-10-31T19:38:59;0.30;;;0.30;;
21448;SDS011;10885;52.830;13.788;2023-10-31T19:44:01;0.88;;;0.50;;
21448;SDS011;10885;52.830;13.788;2023-10-31T19:49:05;0.50;;;0.50;;
21448;SDS011;10885;52.830;13.788;2023-10-31T19:54:08;0.40;;;0.40;;
21448;SDS011;10885;52.830;13.788;2023-10-31T19:59:11;0.32;;;0.32;;
21448;SDS011;10885;52.830;13.788;2023-10-31T20:04:14;0.40;;;0.40;;
21448;SDS011;10885;52.830;13.788;2023-10-31T20:09:16;0.50;;;0.50;;
21448;SDS011;10885;52.830;13.788;2023-10-31T20:14:22;0.45;;;0.40;;
21448;SDS011;10885;52.830;13.788;2023-10-31T20:19:25;0.40;;;0.40;;
21448;SDS011;10885;52.830;13.788;2023-10-31T20:24:28;0.60;;;0.60;;
21448;SDS011;10885;52.830;13.788;2023-10-31T20:29:30;0.80;;;0.80;;
21448;SDS011;10885;52.830;13.788;2023-10-31T20:34:34;0.90;;;0.80;;
21448;SDS011;10885;52.830;13.788;2023-10-31T20:39:37;1.35;;;0.80;;
21448;SDS011;10885;52.830;13.788;2023-10-31T20:44:43;0.73;;;0.73;;
21448;SDS011;10885;52.830;13.788;2023-10-31T20:49:45;0.77;;;0.77;;
21448;SDS011;10885;52.830;13.788;2023-10-31T20:54:48;0.93;;;0.80;;
21448;SDS011;10885;52.830;13.788;2023-10-31T20:59:51;0.95;;;0.60;;
21448;SDS011;10885;52.830;13.788;2023-10-31T21:04:54;1.58;;;0.60;;
21448;SDS011;10885;52.830;13.788;2023-10-31T21:09:57;1.45;;;0.80;;
21448;SDS011;10885;52.830;13.788;2023-10-31T21:15:04;0.60;;;0.50;;
21448;SDS011;10885;52.830;13.788;2023-10-31T21:20:07;0.40;;;0.40;;
21448;SDS011;10885;52.830;13.788;2023-10-31T21:25:11;0.75;;;0.50;;
21448;SDS011;10885;52.830;13.788;2023-10-31T21:30:15;1.75;;;0.50;;
21448;SDS011;10885;52.830;13.788;2023-10-31T21:35:22;0.50;;;0.50;;
21448;SDS011;10885;52.830;13.788;2023-10-31T21:40:26;0.65;;;0.65;;
21448;SDS011;10885;52.830;13.788;2023-10-31T21:45:29;0.40;;;0.40;;
21448;SDS011;10885;52.830;13.788;2023-10-31T21:50:32;0.88;;;0.47;;
21448;SDS011;10885;52.830;13.788;2023-10-31T21:55:34;0.40;;;0.40;;
